Time;durP1;ratioP1;P1;durP2;ratioP2;P2;SDS_P1;SDS_P2;PMS_P1;PMS_P2;Temp;Humidity;BMP_temperature;BMP_pressure;BME280_temperature;BME280_humidity;BME280_pressure;Samples;Min_cycle;Max_cycle;Signal;HPM_P1;HPM_P2
2022/12/23 07:49:51;;;;;;;8.00;3.42;;;15.00;71.30;;;;;;6065529;24;20046;-79
2022/12/23 07:52:52;;;;;;;8.73;3.70;;;15.00;71.30;;;;;;5983579;29;20039;-79
2022/12/23 07:55:54;;;;;;;12.25;6.50;;;15.00;71.20;;;;;;5983733;29;20464;-79
2022/12/23 07:58:54;;;;;;;10.38;4.40;;;15.10;71.20;;;;;;5982689;29;20053;-79
2022/12/23 08:01:57;;;;;;;5.38;3.45;;;15.10;71.10;;;;;;5976713;29;20062;-79
2022/12/23 08:04:58;;;;;;;7.78;3.78;;;15.10;70.90;;;;;;5972147;29;20523;-79
2022/12/23 08:08:00;;;;;;;6.05;3.53;;;15.20;70.90;;;;;;5981317;29;20038;-79
2022/12/23 08:11:04;;;;;;;7.85;3.50;;;15.10;70.70;;;;;;5981889;29;20034;-80
2022/12/23 08:14:05;;;;;;;10.00;4.00;;;15.10;70.70;;;;;;5968063;29;20455;-80
2022/12/23 08:17:08;;;;;;;6.40;3.97;;;15.10;70.70;;;;;;5983683;29;20034;-80
2022/12/23 08:20:09;;;;;;;9.43;4.30;;;15.10;70.80;;;;;;5993068;29;20388;-78
2022/12/23 08:23:11;;;;;;;8.85;4.55;;;15.10;70.90;;;;;;5980869;29;20054;-79
2022/12/23 08:26:13;;;;;;;11.02;4.75;;;15.10;70.80;;;;;;5976476;29;20194;-78
2022/12/23 08:29:14;;;;;;;16.17;4.38;;;15.10;70.80;;;;;;5989138;29;20046;-78
2022/12/23 08:32:15;;;;;;;7.95;4.00;;;15.10;70.70;;;;;;5979997;29;20042;-78
2022/12/23 08:35:16;;;;;;;15.32;4.18;;;15.20;71.40;;;;;;5976282;29;20034;-78
2022/12/23 08:38:17;;;;;;;8.95;4.05;;;15.10;70.60;;;;;;5995457;29;20383;-78
2022/12/23 08:41:21;;;;;;;9.80;3.97;;;15.20;70.80;;;;;;5993304;29;20058;-79
2022/12/23 08:44:25;;;;;;;5.70;3.05;;;15.20;70.80;;;;;;5993341;29;20046;-79
2022/12/23 08:47:26;;;;;;;8.77;3.70;;;15.20;70.80;;;;;;5989359;29;20125;-79
2022/12/23 08:50:27;;;;;;;6.82;3.85;;;15.30;70.70;;;;;;5973761;29;20480;-80
2022/12/23 08:53:29;;;;;;;11.57;4.38;;;15.30;70.50;;;;;;5990363;29;20103;-80
2022/12/23 08:56:34;;;;;;;15.85;4.75;;;15.30;70.40;;;;;;5992297;29;20686;-79
2022/12/23 08:59:35;;;;;;;9.07;4.80;;;15.30;70.50;;;;;;5993044;29;20058;-78
2022/12/23 09:02:35;;;;;;;12.80;5.93;;;15.30;70.60;;;;;;5999559;29;20120;-75
2022/12/23 09:05:40;;;;;;;10.98;5.63;;;15.30;70.30;;;;;;5995135;29;20225;-78
2022/12/23 09:08:42;;;;;;;11.35;5.35;;;15.30;70.50;;;;;;5978882;29;20058;-75
2022/12/23 09:11:43;;;;;;;11.85;5.47;;;15.30;70.30;;;;;;5991056;29;20042;-76
2022/12/23 09:14:46;;;;;;;13.57;5.97;;;15.20;70.30;;;;;;5998488;29;20427;-77
2022/12/23 09:17:47;;;;;;;19.17;6.18;;;15.20;70.20;;;;;;5998305;29;20364;-76
2022/12/23 09:20:48;;;;;;;11.45;5.70;;;15.20;70.30;;;;;;5996864;29;20042;-80
2022/12/23 09:23:49;;;;;;;20.17;7.72;;;15.10;70.40;;;;;;5980301;29;20356;-80
2022/12/23 09:26:50;;;;;;;10.60;5.63;;;15.10;70.30;;;;;;5997936;29;20046;-80
2022/12/23 09:29:52;;;;;;;10.18;5.15;;;15.10;70.10;;;;;;5982594;29;20050;-77
2022/12/23 09:32:53;;;;;;;18.00;6.38;;;15.00;70.00;;;;;;6000906;29;20045;-78
2022/12/23 09:35:59;;;;;;;17.77;6.93;;;14.90;70.20;;;;;;6000569;29;20045;-78
2022/12/23 09:38:59;;;;;;;18.92;8.57;;;14.90;70.30;;;;;;6001115;29;20034;-84
2022/12/23 09:42:06;;;;;;;16.63;7.38;;;14.90;70.40;;;;;;5997170;29;20065;-77
2022/12/23 09:45:10;;;;;;;19.33;8.38;;;14.90;70.50;;;;;;5997936;29;20061;-76
2022/12/23 09:48:15;;;;;;;10.90;6.43;;;14.90;70.50;;;;;;5982521;29;20047;-77
2022/12/23 09:51:21;;;;;;;14.32;6.45;;;14.90;70.60;;;;;;5987900;29;20347;-76
2022/12/23 09:54:24;;;;;;;15.38;6.75;;;15.00;70.60;;;;;;5989585;29;20665;-76
2022/12/23 09:57:39;;;;;;;17.35;7.43;;;15.10;70.60;;;;;;6015694;29;20030;-78
2022/12/23 10:00:53;;;;;;;20.38;10.30;;;15.10;70.40;;;;;;6014788;24;20038;-77
2022/12/23 10:04:22;;;;;;;18.17;7.82;;;15.10;70.40;;;;;;6009428;29;20098;-75
2022/12/23 10:07:27;;;;;;;9.73;5.72;;;15.20;70.40;;;;;;6027117;29;20026;-77
2022/12/23 10:10:53;;;;;;;11.40;6.53;;;15.20;70.30;;;;;;6008265;29;20050;-76
2022/12/23 10:14:12;;;;;;;21.27;8.80;;;15.20;70.10;;;;;;6021348;29;20502;-77
2022/12/23 10:17:40;;;;;;;17.52;6.72;;;15.20;70.20;;;;;;6005565;29;20042;-76
2022/12/23 10:20:52;;;;;;;23.58;6.95;;;15.30;70.30;;;;;;5943051;29;20076;-76
2022/12/23 10:23:54;;;;;;;11.55;5.78;;;15.30;70.10;;;;;;5938940;29;20154;-77
2022/12/23 10:27:03;;;;;;;17.60;6.40;;;15.30;70.10;;;;;;5933534;29;20038;-77
2022/12/23 10:30:13;;;;;;;11.95;6.10;;;15.30;69.90;;;;;;5948531;29;20103;-75
2022/12/23 10:33:30;;;;;;;19.75;7.97;;;15.30;70.00;;;;;;5955390;29;20039;-75
2022/12/23 10:36:46;;;;;;;16.42;6.53;;;15.30;70.00;;;;;;5951718;29;20049;-77
2022/12/23 10:40:21;;;;;;;16.00;6.55;;;15.30;70.00;;;;;;5952953;29;20269;-77
2022/12/23 10:43:34;;;;;;;23.02;8.38;;;15.30;70.10;;;;;;5951547;29;20119;-76
2022/12/23 10:47:05;;;;;;;24.90;8.45;;;15.30;70.00;;;;;;5946637;29;20049;-77
2022/12/23 10:50:27;;;;;;;16.55;7.53;;;15.40;70.00;;;;;;5943968;29;20053;-77
2022/12/23 10:53:55;;;;;;;22.23;9.00;;;15.40;69.90;;;;;;5947627;29;20031;-77
2022/12/23 10:56:56;;;;;;;15.13;7.32;;;15.50;70.00;;;;;;5896516;29;20035;-77
2022/12/23 10:59:57;;;;;;;20.33;8.88;;;15.50;69.70;;;;;;5892788;29;20067;-76
2022/12/23 11:03:27;;;;;;;17.73;8.10;;;15.50;69.70;;;;;;5911546;29;20121;-78
2022/12/23 11:06:29;;;;;;;19.25;9.13;;;15.50;69.90;;;;;;5903424;29;20363;-77
2022/12/23 11:09:50;;;;;;;19.63;9.10;;;15.60;69.80;;;;;;5900806;29;20056;-77
2022/12/23 11:12:52;;;;;;;24.40;10.00;;;15.70;69.70;;;;;;5911727;29;20138;-78
2022/12/23 11:16:09;;;;;;;16.50;8.07;;;15.80;69.50;;;;;;5898382;29;20046;-76
2022/12/23 11:19:14;;;;;;;13.18;6.30;;;15.90;69.30;;;;;;5908642;29;20066;-77
2022/12/23 11:22:24;;;;;;;19.40;10.05;;;15.90;69.10;;;;;;5915020;29;20355;-76
2022/12/23 11:25:36;;;;;;;23.10;10.57;;;15.90;68.80;;;;;;5915077;29;20047;-76
2022/12/23 11:28:47;;;;;;;21.00;8.82;;;15.90;68.50;;;;;;5896155;29;20377;-77
2022/12/23 11:31:48;;;;;;;18.05;8.00;;;15.80;68.60;;;;;;5900271;29;20062;-78
2022/12/23 11:34:50;;;;;;;18.98;8.43;;;15.70;68.80;;;;;;5997349;29;20065;-75
2022/12/23 11:37:51;;;;;;;20.20;9.18;;;15.80;69.00;;;;;;6020702;29;20134;-76
2022/12/23 11:40:52;;;;;;;28.05;11.30;;;15.80;68.90;;;;;;6001526;29;20425;-76
2022/12/23 11:44:04;;;;;;;16.83;9.15;;;15.80;68.90;;;;;;6003638;29;20439;-76
2022/12/23 11:47:28;;;;;;;21.65;10.30;;;15.80;68.70;;;;;;6003627;29;20062;-75
2022/12/23 11:50:36;;;;;;;26.85;10.73;;;15.80;68.70;;;;;;5998458;29;20057;-77
2022/12/23 11:53:42;;;;;;;20.23;9.63;;;15.80;68.60;;;;;;5999228;29;20432;-76
2022/12/23 11:56:46;;;;;;;37.55;15.77;;;15.90;68.70;;;;;;5996343;29;20068;-76
2022/12/23 11:59:49;;;;;;;19.38;9.20;;;15.90;68.50;;;;;;6003833;29;20038;-77
2022/12/23 12:02:53;;;;;;;24.55;11.05;;;15.90;68.40;;;;;;5993766;29;20053;-76
2022/12/23 12:06:04;;;;;;;17.27;8.52;;;15.80;68.10;;;;;;6002255;29;20046;-76
2022/12/23 12:09:05;;;;;;;40.55;14.32;;;15.70;68.30;;;;;;6002449;29;20483;-77
2022/12/23 12:12:18;;;;;;;34.65;13.30;;;15.70;68.30;;;;;;6003589;29;20056;-76
2022/12/23 12:15:42;;;;;;;21.65;10.68;;;15.60;68.60;;;;;;5991583;29;20034;-77
2022/12/23 12:18:45;;;;;;;22.15;11.90;;;15.60;68.80;;;;;;5987571;29;20352;-76
2022/12/23 12:21:52;;;;;;;25.40;11.10;;;15.60;68.80;;;;;;6003379;29;20136;-77
2022/12/23 12:24:55;;;;;;;36.65;15.52;;;15.50;68.70;;;;;;5986657;29;20038;-77
2022/12/23 12:28:01;;;;;;;21.92;10.25;;;15.50;68.90;;;;;;6002931;29;20202;-76
2022/12/23 12:31:04;;;;;;;29.92;12.23;;;15.50;68.80;;;;;;6002981;29;20046;-76
2022/12/23 12:34:18;;;;;;;41.67;17.98;;;15.50;68.80;;;;;;6004551;29;20460;-76
2022/12/23 12:37:30;;;;;;;40.30;17.55;;;15.40;69.10;;;;;;6001159;29;20034;-76
2022/12/23 12:41:03;;;;;;;30.75;14.70;;;15.30;69.40;;;;;;5998927;29;20247;-76
2022/12/23 12:44:24;;;;;;;31.58;12.07;;;15.30;69.50;;;;;;5922198;29;20050;-76
2022/12/23 12:47:40;;;;;;;25.35;11.38;;;15.30;69.60;;;;;;5932139;29;20039;-76
2022/12/23 12:51:04;;;;;;;27.73;13.35;;;15.20;69.60;;;;;;5931175;29;20051;-76
2022/12/23 12:54:21;;;;;;;29.65;12.88;;;15.20;69.80;;;;;;5934389;29;20055;-76
2022/12/23 12:57:23;;;;;;;24.80;11.05;;;15.20;69.80;;;;;;5933495;30;20035;-76
2022/12/23 13:00:24;;;;;;;17.55;8.88;;;15.20;69.80;;;;;;5934123;30;20058;-76
2022/12/23 13:04:21;;;;;;;23.40;11.15;;;15.20;69.80;;;;;;5910639;29;20126;-77
2022/12/23 13:07:54;;;;;;;32.55;8.20;;;15.20;69.80;;;;;;5856346;30;20049;-76
2022/12/23 13:10:58;;;;;;;28.73;10.68;;;15.20;69.80;;;;;;5833814;30;20052;-77
2022/12/23 13:14:26;;;;;;;16.63;8.95;;;15.20;69.80;;;;;;5832267;30;20049;-76
2022/12/23 13:17:38;;;;;;;23.02;9.38;;;15.20;69.90;;;;;;5837650;30;20049;-77
2022/12/23 13:20:47;;;;;;;16.23;8.55;;;15.20;70.00;;;;;;5861100;30;20260;-77
2022/12/23 13:24:12;;;;;;;22.17;9.20;;;15.20;69.90;;;;;;5892080;30;20686;-75
2022/12/23 13:27:31;;;;;;;18.13;9.23;;;15.30;69.90;;;;;;5888672;30;20202;-77
2022/12/23 13:30:44;;;;;;;16.67;9.32;;;15.30;69.70;;;;;;5893392;30;20068;-76
2022/12/23 13:33:55;;;;;;;19.23;8.52;;;15.30;69.70;;;;;;5894683;30;20044;-76
2022/12/23 13:37:02;;;;;;;17.58;9.55;;;15.30;69.80;;;;;;5892692;30;20110;-76
2022/12/23 13:40:16;;;;;;;18.75;9.85;;;15.30;69.90;;;;;;5893400;30;20044;-76
2022/12/23 13:43:22;;;;;;;20.75;9.57;;;15.30;70.00;;;;;;5899482;30;20198;-77
2022/12/23 13:46:45;;;;;;;28.52;11.77;;;15.30;70.10;;;;;;5948534;29;20053;-77
2022/12/23 13:49:49;;;;;;;19.90;9.85;;;15.30;70.30;;;;;;6002660;29;20050;-77
2022/12/23 13:53:05;;;;;;;22.02;10.55;;;15.30;70.20;;;;;;6005685;29;20050;-76
2022/12/23 13:56:31;;;;;;;21.70;9.05;;;15.30;70.30;;;;;;6004706;29;20060;-76
2022/12/23 13:59:41;;;;;;;19.67;7.30;;;15.40;70.30;;;;;;5997492;29;20125;-76
2022/12/23 14:02:58;;;;;;;19.35;9.07;;;15.40;69.90;;;;;;6005496;29;20456;-76
2022/12/23 14:06:21;;;;;;;19.25;8.40;;;15.30;69.70;;;;;;6008398;29;20492;-77
2022/12/23 14:09:30;;;;;;;11.73;6.78;;;15.30;69.80;;;;;;6005601;29;20100;-76
2022/12/23 14:12:36;;;;;;;15.85;7.90;;;15.20;69.90;;;;;;6006359;29;20081;-76
2022/12/23 14:15:57;;;;;;;21.25;7.97;;;15.20;70.00;;;;;;5990849;29;20459;-77
2022/12/23 14:18:58;;;;;;;13.93;7.70;;;15.10;70.10;;;;;;5999917;29;20379;-79
2022/12/23 14:22:20;;;;;;;20.58;8.10;;;15.10;70.30;;;;;;5991007;29;20034;-76
2022/12/23 14:25:39;;;;;;;41.33;16.40;;;15.20;70.50;;;;;;5979943;29;20110;-77
2022/12/23 14:28:40;;;;;;;;;;;15.20;70.40;;;;;;5999377;29;20389;-76
2022/12/23 14:31:44;;;;;;;15.57;6.45;;;15.20;70.40;;;;;;6000541;29;19924;-76
2022/12/23 14:35:22;;;;;;;16.13;7.22;;;15.20;70.20;;;;;;5999729;29;20468;-76
2022/12/23 14:38:28;;;;;;;13.82;7.20;;;15.20;70.20;;;;;;5996428;29;20038;-76
2022/12/23 14:41:50;;;;;;;29.45;9.60;;;15.20;70.30;;;;;;6001925;29;20042;-76
2022/12/23 14:44:50;;;;;;;17.17;7.00;;;15.10;70.40;;;;;;6017810;29;20370;-78
2022/12/23 14:47:51;;;;;;;23.50;9.35;;;15.10;70.20;;;;;;6007578;29;20053;-77
2022/12/23 14:50:57;;;;;;;22.45;10.55;;;15.10;70.10;;;;;;6006796;29;20057;-78
2022/12/23 14:53:58;;;;;;;17.80;6.25;;;15.10;70.40;;;;;;6003409;29;20094;-78
2022/12/23 14:57:06;;;;;;;17.67;8.07;;;15.00;70.40;;;;;;5997771;29;20034;-78
2022/12/23 15:00:09;;;;;;;13.98;5.88;;;15.00;70.50;;;;;;6006645;29;20034;-78
2022/12/23 15:03:10;;;;;;;10.85;5.57;;;15.00;70.40;;;;;;6000637;29;20061;-77
2022/12/23 15:06:17;;;;;;;15.80;6.22;;;15.00;70.60;;;;;;6006815;29;20420;-77
2022/12/23 15:09:25;;;;;;;12.50;6.00;;;15.00;70.80;;;;;;6003489;29;20060;-77
2022/12/23 15:12:34;;;;;;;14.43;6.85;;;15.00;71.60;;;;;;6004900;29;20053;-77
2022/12/23 15:15:35;;;;;;;18.77;10.05;;;15.10;70.70;;;;;;6003901;29;20042;-78
2022/12/23 15:18:35;;;;;;;24.00;10.25;;;15.10;70.70;;;;;;6003214;29;20789;-78
2022/12/23 15:21:37;;;;;;;15.73;8.75;;;15.10;70.70;;;;;;6004013;29;20054;-77
2022/12/23 15:24:41;;;;;;;22.90;8.45;;;15.10;70.80;;;;;;6005814;29;20494;-78
2022/12/23 15:27:42;;;;;;;20.38;9.48;;;15.10;70.90;;;;;;6006729;29;20444;-76
2022/12/23 15:30:48;;;;;;;16.08;8.43;;;15.10;70.90;;;;;;6005908;29;20110;-77
2022/12/23 15:33:49;;;;;;;16.23;8.23;;;15.20;71.00;;;;;;5976878;29;20105;-76
2022/12/23 15:36:54;;;;;;;20.98;8.82;;;15.20;70.70;;;;;;6003830;29;20139;-77
2022/12/23 15:39:55;;;;;;;14.73;7.28;;;15.20;70.70;;;;;;6005166;29;20046;-77
2022/12/23 15:42:57;;;;;;;21.65;8.32;;;15.30;70.80;;;;;;6005543;29;20048;-76
2022/12/23 15:46:14;;;;;;;24.23;11.02;;;15.30;70.70;;;;;;6004335;29;20044;-77
2022/12/23 15:49:17;;;;;;;22.38;10.02;;;15.30;70.70;;;;;;6003797;29;20049;-76
2022/12/23 15:52:18;;;;;;;14.32;7.72;;;15.40;70.70;;;;;;6004929;29;20052;-77
2022/12/23 15:55:23;;;;;;;16.30;8.10;;;15.50;70.70;;;;;;6005430;29;20038;-76
2022/12/23 15:58:26;;;;;;;24.05;11.18;;;15.50;70.40;;;;;;6000996;29;20038;-76
2022/12/23 16:01:35;;;;;;;21.83;9.73;;;15.50;70.20;;;;;;6005405;29;20460;-76
2022/12/23 16:04:37;;;;;;;19.55;8.10;;;15.50;70.40;;;;;;6017203;29;20038;-76
2022/12/23 16:07:40;;;;;;;17.83;8.20;;;15.50;70.20;;;;;;6003003;29;20098;-76
2022/12/23 16:11:02;;;;;;;21.35;9.38;;;15.50;70.20;;;;;;6004132;29;20045;-76
2022/12/23 16:14:26;;;;;;;21.23;8.63;;;15.50;70.20;;;;;;6001159;29;20066;-76
2022/12/23 16:17:35;;;;;;;32.03;13.50;;;15.50;70.20;;;;;;6005264;29;20041;-74
2022/12/23 16:20:43;;;;;;;;;;;15.50;70.30;;;;;;5979095;29;20045;-78
2022/12/23 16:23:52;;;;;;;22.45;10.93;;;15.50;70.40;;;;;;6001940;29;20219;-79
2022/12/23 16:26:55;;;;;;;24.33;11.20;;;15.50;70.30;;;;;;6004023;29;20412;-79
2022/12/23 16:30:00;;;;;;;14.43;7.80;;;15.50;70.30;;;;;;6006042;29;20281;-78
2022/12/23 16:33:06;;;;;;;16.98;8.93;;;15.50;70.10;;;;;;5999247;29;20049;-79
2022/12/23 16:36:20;;;;;;;18.13;8.55;;;15.40;70.20;;;;;;6002585;29;20558;-79
2022/12/23 16:39:22;;;;;;;43.67;16.02;;;15.40;70.40;;;;;;6003818;29;20126;-78
2022/12/23 16:42:23;;;;;;;69.07;23.52;;;15.40;70.40;;;;;;6016464;29;20056;-78
2022/12/23 16:45:24;;;;;;;35.90;16.40;;;15.30;70.50;;;;;;6001958;29;20038;-78
2022/12/23 16:48:57;;;;;;;30.63;13.27;;;15.30;70.60;;;;;;6003585;29;20038;-79
2022/12/23 16:51:58;;;;;;;46.72;19.77;;;15.30;71.50;;;;;;5977471;29;20053;-78
2022/12/23 16:55:05;;;;;;;41.67;17.05;;;15.30;70.80;;;;;;5979912;29;20042;-78
2022/12/23 16:58:07;;;;;;;53.53;19.13;;;15.30;70.80;;;;;;6019777;29;20042;-78
2022/12/23 17:01:17;;;;;;;30.35;14.60;;;15.40;70.90;;;;;;6007990;29;20069;-79
2022/12/23 17:04:18;;;;;;;44.67;17.38;;;15.40;70.80;;;;;;6007540;29;20166;-78
2022/12/23 17:07:19;;;;;;;22.60;10.13;;;15.40;70.80;;;;;;6008642;29;20522;-79
2022/12/23 17:10:20;;;;;;;17.20;9.57;;;15.30;70.70;;;;;;6024366;29;20038;-79
2022/12/23 17:13:21;;;;;;;22.08;10.13;;;15.30;70.70;;;;;;6022625;29;20496;-79
2022/12/23 17:16:23;;;;;;;16.30;8.23;;;15.30;70.70;;;;;;6004491;29;20518;-78
2022/12/23 17:19:24;;;;;;;21.92;9.50;;;15.30;70.80;;;;;;6009130;29;20034;-78
2022/12/23 17:22:27;;;;;;;16.00;7.97;;;15.30;71.00;;;;;;6000536;29;20034;-80
2022/12/23 17:25:28;;;;;;;23.27;8.10;;;15.30;71.00;;;;;;6002611;29;20470;-76
2022/12/23 17:28:31;;;;;;;13.90;6.97;;;15.30;71.00;;;;;;5987508;29;20061;-78
2022/12/23 17:31:33;;;;;;;14.65;7.72;;;15.30;71.10;;;;;;6039235;29;20078;-79
2022/12/23 17:34:34;;;;;;;15.68;6.95;;;15.30;71.00;;;;;;6038014;29;20425;-78
2022/12/23 17:37:39;;;;;;;21.70;8.10;;;15.30;71.00;;;;;;6011526;29;20110;-79
2022/12/23 17:40:41;;;;;;;12.48;6.55;;;15.40;71.10;;;;;;6028966;29;20030;-78
2022/12/23 17:43:42;;;;;;;25.92;11.00;;;15.40;71.10;;;;;;6019355;29;20416;-77
2022/12/23 17:46:44;;;;;;;30.45;14.18;;;15.40;71.10;;;;;;6039527;29;20058;-78
2022/12/23 17:49:46;;;;;;;29.98;14.63;;;15.40;71.20;;;;;;6004340;29;20064;-79
2022/12/23 17:52:47;;;;;;;26.45;12.13;;;15.40;71.30;;;;;;6019930;29;20094;-79
2022/12/23 17:55:48;;;;;;;19.98;11.27;;;15.60;71.40;;;;;;6014281;29;20455;-78
2022/12/23 17:58:50;;;;;;;20.50;9.93;;;15.60;71.20;;;;;;5988268;29;20052;-78
2022/12/23 18:01:51;;;;;;;29.40;12.23;;;15.60;71.20;;;;;;6002265;29;20046;-78
2022/12/23 18:04:52;;;;;;;22.50;10.30;;;15.60;70.90;;;;;;6014389;29;20345;-78
2022/12/23 18:07:56;;;;;;;22.77;10.35;;;15.60;70.80;;;;;;5998116;29;20038;-79
2022/12/23 18:10:58;;;;;;;25.77;12.52;;;15.60;70.70;;;;;;6002727;29;20096;-79
2022/12/23 18:14:00;;;;;;;35.35;14.73;;;15.60;70.80;;;;;;6008256;29;20042;-78
2022/12/23 18:17:01;;;;;;;21.63;9.75;;;15.50;70.90;;;;;;6005839;29;20117;-79
2022/12/23 18:20:03;;;;;;;19.73;9.90;;;15.60;71.00;;;;;;6003298;29;20042;-79
2022/12/23 18:23:04;;;;;;;26.10;11.95;;;15.60;70.90;;;;;;5997807;29;20046;-78
2022/12/23 18:26:05;;;;;;;20.60;9.73;;;15.70;70.90;;;;;;6008869;29;20388;-78
2022/12/23 18:29:06;;;;;;;21.27;9.32;;;15.70;70.70;;;;;;6003064;29;20049;-80
2022/12/23 18:32:18;;;;;;;19.83;10.05;;;15.70;70.70;;;;;;6006305;29;20056;-78
